createdAt,value
2023-05-10T00:00:58.575Z,25.60
2023-05-10T00:03:06.315Z,28.13
2023-05-10T00:05:12.191Z,28.13
2023-05-10T00:07:18.792Z,31.10
2023-05-10T00:09:23.887Z,29.70
2023-05-10T00:11:31.371Z,30.00
2023-05-10T00:13:36.287Z,29.73
2023-05-10T00:15:41.208Z,32.30
2023-05-10T00:17:46.109Z,30.35
2023-05-10T00:19:53.750Z,32.03
2023-05-10T00:21:58.677Z,30.63
2023-05-10T00:24:03.719Z,29.98
2023-05-10T00:26:08.572Z,32.70
2023-05-10T00:28:13.483Z,32.08
2023-05-10T00:30:18.579Z,31.60
2023-05-10T00:32:24.034Z,34.70
2023-05-10T00:34:29.560Z,31.30
2023-05-10T00:36:37.069Z,31.13
2023-05-10T00:38:41.915Z,33.65
2023-05-10T00:40:46.846Z,29.55
2023-05-10T00:42:52.299Z,29.70
2023-05-10T00:44:57.601Z,29.98
2023-05-10T00:47:03.416Z,31.45
2023-05-10T00:49:08.331Z,31.35
2023-05-10T00:51:13.229Z,30.25
2023-05-10T00:53:21.132Z,30.10
2023-05-10T00:55:27.059Z,28.48
2023-05-10T00:57:32.429Z,26.70
2023-05-10T00:59:37.588Z,30.35
2023-05-10T01:01:42.544Z,31.60
2023-05-10T01:03:48.082Z,32.80
2023-05-10T01:05:53.814Z,28.60
2023-05-10T01:07:59.090Z,30.10
2023-05-10T01:10:06.971Z,29.13
2023-05-10T01:12:11.897Z,30.60
2023-05-10T01:14:17.141Z,31.00
2023-05-10T01:16:22.549Z,28.15
2023-05-10T01:18:29.270Z,28.88
2023-05-10T01:20:44.640Z,32.85
2023-05-10T01:23:25.237Z,30.60
2023-05-10T01:26:02.452Z,32.75
2023-05-10T01:28:43.183Z,30.80
2023-05-10T01:31:22.348Z,31.10
2023-05-10T01:33:34.329Z,34.03
2023-05-10T01:35:44.173Z,30.52
2023-05-10T01:37:54.004Z,32.17
2023-05-10T01:40:04.386Z,31.80
2023-05-10T01:42:14.507Z,30.70
2023-05-10T01:44:36.747Z,34.47
2023-05-10T01:46:43.680Z,29.90
2023-05-10T01:48:54.708Z,30.63
2023-05-10T01:51:01.348Z,30.50
2023-05-10T01:53:09.640Z,31.52
2023-05-10T01:55:18.809Z,33.95
2023-05-10T01:57:26.500Z,31.60
2023-05-10T01:59:37.798Z,28.10
2023-05-10T02:01:44.049Z,30.27
2023-05-10T02:03:53.823Z,32.40
2023-05-10T02:06:00.446Z,30.08
2023-05-10T02:08:07.331Z,29.20
2023-05-10T02:10:15.727Z,26.13
2023-05-10T02:12:22.500Z,27.65
2023-05-10T02:14:30.613Z,27.20
2023-05-10T02:16:36.701Z,27.17
2023-05-10T02:18:44.670Z,25.60
2023-05-10T02:20:53.614Z,23.55
2023-05-10T02:23:02.005Z,24.80
2023-05-10T02:25:07.880Z,26.15
2023-05-10T02:27:14.214Z,26.38
2023-05-10T02:29:21.273Z,27.17
2023-05-10T02:31:30.894Z,27.90
2023-05-10T02:33:36.596Z,25.30
2023-05-10T02:35:42.560Z,26.23
2023-05-10T02:37:52.280Z,27.15
2023-05-10T02:40:00.702Z,28.33
2023-05-10T02:42:06.358Z,28.42
2023-05-10T02:44:13.128Z,28.85
2023-05-10T02:46:18.011Z,29.90
2023-05-10T02:48:26.217Z,28.33
2023-05-10T02:50:33.832Z,28.73
2023-05-10T02:52:44.715Z,30.27
2023-05-10T02:54:56.472Z,27.48
2023-05-10T02:57:04.196Z,31.13
2023-05-10T02:59:09.647Z,25.55
2023-05-10T03:01:14.576Z,30.95
2023-05-10T03:03:19.452Z,31.40
2023-05-10T03:05:24.643Z,28.25
2023-05-10T03:07:29.560Z,28.70
2023-05-10T03:09:34.932Z,30.23
2023-05-10T03:11:54.228Z,29.02
2023-05-10T03:14:12.578Z,30.13
2023-05-10T03:16:20.768Z,28.90
2023-05-10T03:18:27.510Z,29.35
2023-05-10T03:20:38.003Z,31.65
2023-05-10T03:22:48.377Z,30.52
2023-05-10T03:24:53.858Z,26.40
2023-05-10T03:27:05.436Z,26.25
2023-05-10T03:29:11.207Z,27.15
2023-05-10T03:31:17.001Z,26.45
2023-05-10T03:33:22.465Z,26.60
2023-05-10T03:35:28.558Z,28.40
2023-05-10T03:37:33.618Z,30.52
2023-05-10T03:39:38.381Z,30.80
2023-05-10T03:41:43.224Z,28.77
2023-05-10T03:43:50.831Z,33.35
2023-05-10T03:45:58.622Z,34.40
2023-05-10T03:48:03.981Z,34.50
2023-05-10T03:50:12.564Z,30.65
2023-05-10T03:52:17.695Z,31.98
2023-05-10T03:54:23.704Z,32.10
2023-05-10T03:56:29.209Z,34.10
2023-05-10T03:58:34.151Z,37.53
2023-05-10T04:00:44.845Z,32.08
2023-05-10T04:02:49.903Z,35.72
2023-05-10T04:04:55.341Z,32.75
2023-05-10T04:07:00.409Z,31.60
2023-05-10T04:09:05.468Z,32.63
2023-05-10T04:11:11.430Z,33.03
2023-05-10T04:13:16.219Z,29.80
2023-05-10T04:15:22.602Z,29.35
2023-05-10T04:17:30.447Z,30.00
2023-05-10T04:19:35.935Z,28.92
2023-05-10T04:21:40.961Z,28.65
2023-05-10T04:23:45.932Z,27.88
2023-05-10T04:25:50.892Z,27.88
2023-05-10T04:27:57.187Z,27.33
2023-05-10T04:30:02.400Z,27.17
2023-05-10T04:32:07.915Z,24.63
2023-05-10T04:34:15.376Z,26.63
2023-05-10T04:36:20.371Z,26.25
2023-05-10T04:38:25.746Z,24.20
2023-05-10T04:40:30.793Z,25.25
2023-05-10T04:42:35.669Z,25.88
2023-05-10T04:44:40.836Z,28.08
2023-05-10T04:46:45.935Z,21.42
2023-05-10T04:48:51.023Z,23.23
2023-05-10T04:50:58.686Z,22.45
2023-05-10T04:53:06.107Z,22.20
2023-05-10T04:55:11.848Z,21.65
2023-05-10T04:57:16.750Z,21.40
2023-05-10T04:59:22.403Z,19.55
2023-05-10T05:01:27.500Z,18.10
2023-05-10T05:03:32.465Z,19.83
2023-05-10T05:05:37.657Z,17.63
2023-05-10T05:07:45.098Z,18.65
2023-05-10T05:09:49.943Z,15.38
2023-05-10T05:11:54.973Z,13.68
2023-05-10T05:14:02.975Z,12.05
2023-05-10T05:16:09.314Z,9.88
2023-05-10T05:18:14.344Z,8.63
2023-05-10T05:20:20.204Z,7.45
2023-05-10T05:22:29.024Z,7.80
2023-05-10T05:24:39.794Z,7.35
2023-05-10T05:26:44.714Z,7.35
2023-05-10T05:28:50.006Z,5.97
2023-05-10T05:30:55.330Z,6.93
2023-05-10T05:33:00.735Z,7.20
2023-05-10T05:35:05.676Z,7.35
2023-05-10T05:37:10.581Z,6.72
2023-05-10T05:39:15.574Z,6.85
2023-05-10T05:41:23.934Z,6.20
2023-05-10T05:43:29.161Z,7.22
2023-05-10T05:45:33.918Z,6.68
2023-05-10T05:47:38.729Z,6.53
2023-05-10T05:49:43.617Z,6.43
2023-05-10T05:51:50.216Z,6.22
2023-05-10T05:53:55.351Z,6.63
2023-05-10T05:56:01.264Z,7.47
2023-05-10T05:58:08.581Z,8.30
2023-05-10T06:00:14.230Z,8.10
2023-05-10T06:02:19.074Z,7.40
2023-05-10T06:04:24.142Z,7.30
2023-05-10T06:06:29.450Z,8.80
2023-05-10T06:08:35.250Z,7.97
2023-05-10T06:10:40.272Z,7.68
2023-05-10T06:12:45.204Z,9.05
2023-05-10T06:14:53.906Z,9.90
2023-05-10T06:17:00.878Z,9.50
2023-05-10T06:19:06.195Z,10.27
2023-05-10T06:21:11.152Z,11.23
2023-05-10T06:23:16.060Z,10.70
2023-05-10T06:25:21.297Z,9.45
2023-05-10T06:27:27.179Z,9.32
2023-05-10T06:29:32.117Z,9.40
2023-05-10T06:31:39.534Z,9.48
2023-05-10T06:33:44.530Z,9.23
2023-05-10T06:35:49.555Z,8.80
2023-05-10T06:37:56.087Z,7.57
2023-05-10T06:40:01.023Z,8.60
2023-05-10T06:42:05.925Z,7.13
2023-05-10T06:44:10.776Z,6.78
2023-05-10T06:46:15.750Z,7.63
2023-05-10T06:48:23.969Z,6.55
2023-05-10T06:50:31.428Z,8.25
2023-05-10T06:52:36.239Z,8.30
2023-05-10T06:54:41.180Z,8.38
2023-05-10T06:56:46.014Z,8.52
2023-05-10T06:58:50.997Z,7.63
2023-05-10T07:00:56.733Z,7.95
2023-05-10T07:03:01.708Z,7.30
2023-05-10T07:05:10.107Z,7.85
2023-05-10T07:07:14.923Z,7.63
2023-05-10T07:09:19.840Z,7.50
2023-05-10T07:11:25.174Z,6.70
2023-05-10T07:13:29.884Z,7.28
2023-05-10T07:15:34.743Z,7.68
2023-05-10T07:17:40.193Z,8.48
2023-05-10T07:19:45.634Z,8.40
2023-05-10T07:21:53.649Z,8.95
2023-05-10T07:24:01.541Z,8.48
2023-05-10T07:26:06.336Z,8.68
2023-05-10T07:28:11.154Z,8.43
2023-05-10T07:30:17.402Z,7.47
2023-05-10T07:32:22.799Z,7.97
2023-05-10T07:34:28.058Z,9.30
2023-05-10T07:36:35.739Z,8.63
2023-05-10T07:38:43.325Z,8.77
2023-05-10T07:40:48.015Z,8.10
2023-05-10T07:42:53.646Z,7.85
2023-05-10T07:44:59.251Z,8.45
2023-05-10T07:47:04.073Z,9.30
2023-05-10T07:49:08.900Z,9.05
2023-05-10T07:51:13.741Z,9.48
2023-05-10T07:53:19.879Z,9.13
2023-05-10T07:55:27.600Z,8.00
2023-05-10T07:57:32.624Z,8.45
2023-05-10T07:59:37.912Z,8.13
2023-05-10T08:01:42.887Z,7.60
2023-05-10T08:03:48.002Z,7.10
2023-05-10T08:05:53.620Z,7.75
2023-05-10T08:08:01.446Z,8.23
2023-05-10T08:10:07.031Z,8.23
2023-05-10T08:12:14.752Z,8.35
2023-05-10T08:14:19.701Z,7.60
2023-05-10T08:16:32.996Z,7.40
2023-05-10T08:18:38.150Z,8.60
2023-05-10T08:20:43.073Z,8.38
2023-05-10T08:22:49.914Z,7.47
2023-05-10T08:24:56.761Z,7.97
2023-05-10T08:27:01.996Z,7.43
2023-05-10T08:29:09.957Z,8.23
2023-05-10T08:31:14.784Z,7.10
2023-05-10T08:33:19.727Z,7.65
2023-05-10T08:35:28.696Z,7.20
2023-05-10T08:37:34.336Z,8.73
2023-05-10T08:39:39.219Z,7.65
2023-05-10T08:41:47.840Z,6.70
2023-05-10T08:43:54.142Z,8.63
2023-05-10T08:46:05.206Z,7.70
2023-05-10T08:48:11.354Z,8.00
2023-05-10T08:50:17.525Z,7.82
2023-05-10T08:52:22.866Z,7.93
2023-05-10T08:54:31.613Z,7.78
2023-05-10T08:56:37.737Z,7.03
2023-05-10T08:58:42.980Z,6.65
2023-05-10T09:00:48.198Z,5.78
2023-05-10T09:03:00.457Z,6.10
2023-05-10T09:05:05.996Z,6.50
2023-05-10T09:07:11.160Z,7.18
2023-05-10T09:09:16.534Z,6.63
2023-05-10T09:11:26.540Z,5.30
2023-05-10T09:13:32.571Z,5.95
2023-05-10T09:15:37.684Z,6.03
2023-05-10T09:17:44.492Z,6.45
2023-05-10T09:19:52.384Z,6.82
2023-05-10T09:21:57.401Z,6.28
2023-05-10T09:24:07.354Z,6.65
2023-05-10T09:26:12.167Z,5.90
2023-05-10T09:28:17.200Z,5.80
2023-05-10T09:30:28.643Z,6.00
2023-05-10T09:32:43.768Z,6.35
2023-05-10T09:34:54.014Z,6.78
2023-05-10T09:37:02.163Z,7.85
2023-05-10T09:39:07.283Z,7.47
2023-05-10T09:41:20.246Z,8.02
2023-05-10T09:43:31.619Z,8.00
2023-05-10T09:45:38.950Z,7.18
2023-05-10T09:47:44.301Z,7.57
2023-05-10T09:49:54.376Z,7.70
2023-05-10T09:52:05.477Z,8.05
2023-05-10T09:54:14.851Z,8.18
2023-05-10T09:56:41.503Z,7.82
2023-05-10T09:58:46.615Z,7.80
2023-05-10T10:00:55.370Z,7.22
2023-05-10T10:03:01.373Z,7.05
2023-05-10T10:05:11.112Z,7.70
2023-05-10T10:07:16.194Z,8.18
2023-05-10T10:09:21.077Z,7.38
2023-05-10T10:11:30.545Z,7.45
2023-05-10T10:13:36.423Z,6.55
2023-05-10T10:15:41.756Z,5.88
2023-05-10T10:17:47.955Z,5.68
2023-05-10T10:19:53.410Z,6.28
2023-05-10T10:22:01.446Z,6.63
2023-05-10T10:24:06.962Z,6.30
2023-05-10T10:26:12.317Z,7.28
2023-05-10T10:28:30.870Z,7.22
2023-05-10T10:30:40.931Z,6.32
2023-05-10T10:33:16.479Z,7.55
2023-05-10T10:35:25.999Z,8.13
2023-05-10T10:37:51.413Z,7.30
2023-05-10T10:39:59.329Z,8.45
2023-05-10T10:42:04.664Z,7.80
2023-05-10T10:44:33.165Z,6.93
2023-05-10T10:46:38.792Z,7.72
2023-05-10T10:48:43.663Z,7.35
2023-05-10T10:50:49.554Z,8.40
2023-05-10T10:52:57.694Z,8.23
2023-05-10T10:55:05.154Z,8.07
2023-05-10T10:57:16.930Z,7.72
2023-05-10T10:59:30.966Z,7.20
2023-05-10T11:01:38.125Z,7.03
2023-05-10T11:03:43.196Z,6.90
2023-05-10T11:05:48.684Z,7.40
2023-05-10T11:08:00.573Z,8.82
2023-05-10T11:10:08.635Z,7.38
2023-05-10T11:12:13.566Z,8.50
2023-05-10T11:14:18.508Z,8.23
2023-05-10T11:16:24.967Z,7.38
2023-05-10T11:18:31.968Z,8.02
2023-05-10T11:20:43.094Z,8.70
2023-05-10T11:22:54.766Z,7.97
2023-05-10T11:25:05.154Z,7.15
2023-05-10T11:27:10.227Z,7.68
2023-05-10T11:29:17.008Z,8.13
2023-05-10T11:31:23.339Z,6.95
2023-05-10T11:33:31.325Z,6.93
2023-05-10T11:35:43.405Z,5.50
2023-05-10T11:37:52.240Z,5.65
2023-05-10T11:39:59.149Z,5.93
2023-05-10T11:42:06.732Z,6.53
2023-05-10T11:44:13.309Z,7.15
2023-05-10T11:46:21.466Z,7.00
2023-05-10T11:48:27.394Z,5.50
2023-05-10T11:50:32.986Z,6.20
2023-05-10T11:52:40.643Z,5.95
2023-05-10T11:54:50.032Z,6.35
2023-05-10T11:56:54.952Z,7.15
2023-05-10T11:59:05.628Z,6.55
2023-05-10T12:01:11.961Z,6.45
2023-05-10T12:03:17.364Z,7.45
2023-05-10T12:05:22.931Z,6.70
2023-05-10T12:07:27.850Z,6.10
2023-05-10T12:09:43.100Z,6.63
2023-05-10T12:11:48.736Z,6.53
2023-05-10T12:13:54.635Z,6.63
2023-05-10T12:16:04.020Z,6.38
2023-05-10T12:18:09.494Z,6.18
2023-05-10T12:20:19.068Z,6.22
2023-05-10T12:22:25.169Z,8.00
2023-05-10T12:24:30.144Z,6.72
2023-05-10T12:26:35.605Z,7.22
2023-05-10T12:28:41.853Z,6.30
2023-05-10T12:30:47.854Z,6.32
2023-05-10T12:32:55.975Z,6.28
2023-05-10T12:35:01.887Z,6.40
2023-05-10T12:37:07.644Z,6.70
2023-05-10T12:39:12.889Z,7.47
2023-05-10T12:41:19.910Z,7.20
2023-05-10T12:43:24.763Z,7.60
2023-05-10T12:45:30.029Z,7.45
2023-05-10T12:47:35.370Z,5.80
2023-05-10T12:49:42.775Z,5.65
2023-05-10T12:51:47.561Z,6.75
2023-05-10T12:53:53.252Z,8.40
2023-05-10T12:55:58.783Z,6.88
2023-05-10T12:58:03.831Z,6.50
2023-05-10T13:00:10.583Z,6.55
2023-05-10T13:02:15.877Z,7.57
2023-05-10T13:04:20.724Z,7.15
2023-05-10T13:06:29.588Z,6.75
2023-05-10T13:08:35.047Z,5.10
2023-05-10T13:10:40.050Z,6.40
2023-05-10T13:12:44.894Z,5.20
2023-05-10T13:14:49.953Z,5.32
2023-05-10T13:16:55.077Z,5.50
2023-05-10T13:19:00.362Z,5.20
2023-05-10T13:21:06.754Z,6.57
2023-05-10T13:23:14.231Z,5.47
2023-05-10T13:25:19.040Z,5.80
2023-05-10T13:27:24.294Z,5.43
2023-05-10T13:29:29.157Z,5.68
2023-05-10T13:31:34.139Z,5.55
2023-05-10T13:33:38.990Z,4.60
2023-05-10T13:35:43.755Z,5.53
2023-05-10T13:37:48.558Z,6.13
2023-05-10T13:39:56.322Z,6.95
2023-05-10T13:42:01.072Z,6.03
2023-05-10T13:44:05.873Z,5.93
2023-05-10T13:46:10.709Z,5.97
2023-05-10T13:48:51.884Z,5.88
2023-05-10T13:50:56.738Z,5.95
2023-05-10T13:53:01.625Z,6.20
2023-05-10T13:55:09.878Z,5.70
2023-05-10T13:57:15.202Z,5.68
2023-05-10T13:59:20.138Z,4.80
2023-05-10T14:01:25.102Z,5.15
2023-05-10T14:03:30.429Z,6.22
2023-05-10T14:05:35.662Z,5.45
2023-05-10T14:07:42.421Z,6.15
2023-05-10T14:09:47.234Z,5.90
2023-05-10T14:11:54.664Z,6.13
2023-05-10T14:13:59.554Z,6.00
2023-05-10T14:16:04.444Z,5.85
2023-05-10T14:18:10.067Z,6.47
2023-05-10T14:20:15.604Z,6.50
2023-05-10T14:22:20.814Z,6.45
2023-05-10T14:24:25.685Z,5.82
2023-05-10T14:26:30.807Z,5.90
2023-05-10T14:28:38.360Z,6.68
2023-05-10T14:30:44.087Z,6.03
2023-05-10T14:32:48.924Z,5.82
2023-05-10T14:34:54.006Z,7.28
2023-05-10T14:36:59.633Z,5.45
2023-05-10T14:39:04.747Z,6.28
2023-05-10T14:41:11.806Z,5.95
2023-05-10T14:43:16.813Z,6.50
2023-05-10T14:45:25.053Z,6.00
2023-05-10T14:47:30.306Z,6.00
2023-05-10T14:49:35.323Z,6.70
2023-05-10T14:51:41.126Z,5.93
2023-05-10T14:53:46.416Z,5.80
2023-05-10T14:55:51.454Z,5.68
2023-05-10T14:57:56.286Z,5.47
2023-05-10T15:00:01.316Z,4.88
2023-05-10T15:02:10.660Z,5.55
2023-05-10T15:04:17.667Z,5.63
2023-05-10T15:06:27.580Z,5.43
2023-05-10T15:08:33.756Z,5.50
2023-05-10T15:10:38.891Z,6.53
2023-05-10T15:12:44.610Z,5.93
2023-05-10T15:14:49.482Z,5.95
2023-05-10T15:16:55.282Z,5.60
2023-05-10T15:19:03.021Z,5.80
2023-05-10T15:21:07.921Z,6.20
2023-05-10T15:23:12.847Z,5.95
2023-05-10T15:25:18.453Z,6.05
2023-05-10T15:27:23.481Z,5.50
2023-05-10T15:29:28.914Z,5.15
2023-05-10T15:31:36.232Z,5.05
2023-05-10T15:33:42.517Z,5.43
2023-05-10T15:35:49.999Z,5.30
2023-05-10T15:37:54.923Z,4.32
2023-05-10T15:40:04.977Z,5.45
2023-05-10T15:42:10.126Z,5.43
2023-05-10T15:44:14.984Z,4.45
2023-05-10T15:46:19.831Z,4.20
2023-05-10T15:48:24.728Z,4.63
2023-05-10T15:50:29.930Z,4.35
2023-05-10T15:52:37.872Z,4.72
2023-05-10T15:54:42.980Z,4.28
2023-05-10T15:56:48.220Z,4.05
2023-05-10T15:58:53.453Z,3.90
2023-05-10T16:01:01.889Z,3.85
2023-05-10T16:03:07.142Z,3.90
2023-05-10T16:05:14.284Z,4.22
2023-05-10T16:07:19.262Z,4.47
2023-05-10T16:09:26.711Z,4.40
2023-05-10T16:11:31.668Z,4.90
2023-05-10T16:13:37.676Z,5.55
2023-05-10T16:15:43.296Z,5.00
2023-05-10T16:17:48.437Z,5.13
2023-05-10T16:19:53.495Z,4.82
2023-05-10T16:22:01.232Z,4.05
2023-05-10T16:24:06.644Z,4.18
2023-05-10T16:26:14.462Z,4.25
2023-05-10T16:28:21.158Z,3.90
2023-05-10T16:30:27.693Z,4.97
2023-05-10T16:32:35.582Z,4.00
2023-05-10T16:34:40.801Z,4.47
2023-05-10T16:36:46.068Z,4.78
2023-05-10T16:38:51.721Z,4.95
2023-05-10T16:40:57.595Z,5.43
2023-05-10T16:43:04.964Z,5.72
2023-05-10T16:45:11.481Z,6.28
2023-05-10T16:47:16.853Z,6.65
2023-05-10T16:49:23.669Z,6.32
2023-05-10T16:51:30.569Z,5.97
2023-05-10T16:53:35.486Z,6.63
2023-05-10T16:55:40.491Z,6.00
2023-05-10T16:57:46.116Z,6.80
2023-05-10T16:59:55.937Z,7.00
2023-05-10T17:02:01.084Z,7.22
2023-05-10T17:04:06.685Z,6.68
2023-05-10T17:06:11.947Z,7.05
2023-05-10T17:08:16.824Z,7.18
2023-05-10T17:10:22.650Z,6.85
2023-05-10T17:12:28.039Z,6.05
2023-05-10T17:14:33.040Z,7.88
2023-05-10T17:16:40.847Z,7.60
2023-05-10T17:18:46.490Z,7.25
2023-05-10T17:20:51.575Z,6.80
2023-05-10T17:22:56.483Z,8.27
2023-05-10T17:25:01.446Z,7.97
2023-05-10T17:27:07.205Z,6.80
2023-05-10T17:29:14.591Z,7.50
2023-05-10T17:31:19.492Z,7.55
2023-05-10T17:33:27.115Z,7.72
2023-05-10T17:35:32.753Z,8.07
2023-05-10T17:37:37.898Z,7.47
2023-05-10T17:39:42.791Z,7.78
2023-05-10T17:41:47.968Z,7.75
2023-05-10T17:43:53.361Z,8.57
2023-05-10T17:45:58.508Z,6.45
2023-05-10T17:48:03.626Z,6.75
2023-05-10T17:50:15.550Z,7.28
2023-05-10T17:52:20.547Z,8.52
2023-05-10T17:54:25.512Z,8.18
2023-05-10T17:56:30.540Z,7.78
2023-05-10T17:58:38.494Z,7.85
2023-05-10T18:00:43.597Z,7.97
2023-05-10T18:02:48.737Z,7.80
2023-05-10T18:04:53.753Z,6.70
2023-05-10T18:07:01.912Z,8.32
2023-05-10T18:09:07.720Z,7.15
2023-05-10T18:11:14.072Z,7.35
2023-05-10T18:13:20.095Z,8.38
2023-05-10T18:15:25.077Z,7.70
2023-05-10T18:17:30.278Z,8.38
2023-05-10T18:19:35.319Z,7.30
2023-05-10T18:21:40.746Z,7.68
2023-05-10T18:23:48.255Z,8.18
2023-05-10T18:25:53.888Z,8.10
2023-05-10T18:27:59.073Z,7.90
2023-05-10T18:30:05.132Z,8.23
2023-05-10T18:32:10.093Z,8.13
2023-05-10T18:34:15.306Z,7.47
2023-05-10T18:36:20.217Z,8.38
2023-05-10T18:38:25.165Z,7.35
2023-05-10T18:40:32.956Z,8.27
2023-05-10T18:42:38.394Z,6.30
2023-05-10T18:44:43.389Z,7.07
2023-05-10T18:46:49.250Z,6.57
2023-05-10T18:48:54.380Z,6.18
2023-05-10T18:50:59.451Z,6.88
2023-05-10T18:53:04.490Z,6.40
2023-05-10T18:55:11.547Z,6.30
2023-05-10T18:57:21.529Z,7.07
2023-05-10T18:59:28.009Z,6.40
2023-05-10T19:01:32.970Z,6.00
2023-05-10T19:03:38.844Z,7.32
2023-05-10T19:05:43.692Z,9.07
2023-05-10T19:07:49.099Z,10.57
2023-05-10T19:09:54.716Z,7.63
2023-05-10T19:11:59.930Z,7.88
2023-05-10T19:14:08.212Z,6.47
2023-05-10T19:16:16.229Z,5.32
2023-05-10T19:18:21.685Z,4.88
2023-05-10T19:20:28.248Z,4.82
2023-05-10T19:22:47.134Z,5.30
2023-05-10T19:25:01.586Z,4.07
2023-05-10T19:27:06.950Z,4.28
2023-05-10T19:29:17.741Z,3.90
2023-05-10T19:31:25.592Z,4.82
2023-05-10T19:33:30.907Z,4.32
2023-05-10T19:35:35.981Z,4.78
2023-05-10T19:37:46.149Z,5.95
2023-05-10T19:39:51.935Z,6.78
2023-05-10T19:41:57.114Z,5.82
2023-05-10T19:44:02.149Z,6.82
2023-05-10T19:46:10.163Z,7.85
2023-05-10T19:48:15.499Z,8.00
2023-05-10T19:50:21.283Z,8.30
2023-05-10T19:52:26.898Z,7.72
2023-05-10T19:54:32.134Z,8.43
2023-05-10T19:56:38.350Z,9.98
2023-05-10T19:58:44.374Z,6.75
2023-05-10T20:00:49.563Z,7.72
2023-05-10T20:02:58.259Z,7.07
2023-05-10T20:05:03.281Z,7.60
2023-05-10T20:07:08.414Z,7.97
2023-05-10T20:09:13.573Z,7.70
2023-05-10T20:11:20.091Z,8.52
2023-05-10T20:13:27.380Z,9.45
2023-05-10T20:15:33.102Z,7.15
2023-05-10T20:17:39.812Z,6.78
2023-05-10T20:19:50.347Z,6.25
2023-05-10T20:21:59.017Z,7.80
2023-05-10T20:24:06.851Z,8.68
2023-05-10T20:26:12.926Z,8.38
2023-05-10T20:28:18.199Z,7.55
2023-05-10T20:30:23.295Z,8.25
2023-05-10T20:32:30.937Z,10.25
2023-05-10T20:34:38.051Z,8.40
2023-05-10T20:36:45.973Z,9.90
2023-05-10T20:38:52.279Z,9.82
2023-05-10T20:40:57.666Z,9.45
2023-05-10T20:43:02.644Z,8.98
2023-05-10T20:45:08.675Z,10.70
2023-05-10T20:47:14.047Z,10.32
2023-05-10T20:49:19.988Z,11.13
2023-05-10T20:51:30.307Z,10.18
2023-05-10T20:53:38.049Z,11.82
2023-05-10T20:55:43.145Z,10.15
2023-05-10T20:57:48.642Z,8.82
2023-05-10T20:59:53.652Z,8.85
2023-05-10T21:01:59.839Z,9.55
2023-05-10T21:04:05.137Z,8.82
2023-05-10T21:06:10.487Z,10.40
2023-05-10T21:08:15.526Z,9.43
2023-05-10T21:10:25.728Z,10.35
2023-05-10T21:12:31.059Z,9.82
2023-05-10T21:14:36.552Z,10.15
2023-05-10T21:16:42.070Z,9.27
2023-05-10T21:18:47.173Z,7.95
2023-05-10T21:20:53.064Z,9.68
2023-05-10T21:22:58.731Z,9.32
2023-05-10T21:25:04.018Z,8.75
2023-05-10T21:27:11.553Z,9.05
2023-05-10T21:29:16.580Z,9.18
2023-05-10T21:31:22.391Z,8.73
2023-05-10T21:33:27.506Z,10.13
2023-05-10T21:35:33.436Z,10.10
2023-05-10T21:37:38.330Z,9.15
2023-05-10T21:39:43.097Z,11.77
2023-05-10T21:41:47.978Z,8.52
2023-05-10T21:43:56.591Z,9.45
2023-05-10T21:46:01.628Z,9.63
2023-05-10T21:48:06.985Z,9.05
2023-05-10T21:50:13.138Z,9.40
2023-05-10T21:52:18.106Z,11.35
2023-05-10T21:54:23.079Z,10.75
2023-05-10T21:56:32.166Z,11.13
2023-05-10T21:58:37.204Z,9.95
2023-05-10T22:00:47.302Z,10.48
2023-05-10T22:02:52.537Z,9.25
2023-05-10T22:04:57.456Z,8.65
2023-05-10T22:07:02.486Z,8.95
2023-05-10T22:09:08.021Z,8.65
2023-05-10T22:11:13.068Z,8.50
2023-05-10T22:13:18.057Z,8.82
2023-05-10T22:15:23.036Z,8.38
2023-05-10T22:17:31.581Z,9.57
2023-05-10T22:19:36.529Z,8.75
2023-05-10T22:21:41.512Z,8.82
2023-05-10T22:23:46.470Z,9.00
2023-05-10T22:25:51.309Z,9.88
2023-05-10T22:27:56.733Z,9.38
2023-05-10T22:30:01.695Z,9.45
2023-05-10T22:32:07.015Z,10.75
2023-05-10T22:34:14.638Z,9.00
2023-05-10T22:36:19.540Z,9.25
2023-05-10T22:38:25.699Z,9.30
2023-05-10T22:40:30.787Z,8.38
2023-05-10T22:42:36.541Z,9.88
2023-05-10T22:44:41.360Z,9.13
2023-05-10T22:46:46.415Z,7.55
2023-05-10T22:48:51.833Z,7.68
2023-05-10T22:51:00.248Z,8.38
2023-05-10T22:53:08.061Z,7.95
2023-05-10T22:55:13.231Z,8.40
2023-05-10T22:57:18.434Z,8.13
2023-05-10T22:59:23.874Z,9.10
2023-05-10T23:01:32.622Z,8.35
2023-05-10T23:03:37.765Z,8.43
2023-05-10T23:05:42.606Z,8.30
2023-05-10T23:07:53.443Z,8.45
2023-05-10T23:09:58.301Z,9.18
2023-05-10T23:12:03.232Z,9.35
2023-05-10T23:14:08.346Z,9.20
2023-05-10T23:16:13.535Z,9.10
2023-05-10T23:18:19.077Z,9.50
2023-05-10T23:20:27.205Z,10.25
2023-05-10T23:22:32.307Z,10.30
2023-05-10T23:24:39.842Z,9.05
2023-05-10T23:26:46.712Z,10.75
2023-05-10T23:28:51.535Z,11.43
2023-05-10T23:30:58.547Z,11.20
2023-05-10T23:33:03.722Z,9.45
2023-05-10T23:35:09.813Z,10.25
2023-05-10T23:37:15.086Z,10.45
2023-05-10T23:39:20.061Z,10.63
2023-05-10T23:41:27.727Z,11.43
2023-05-10T23:43:32.634Z,11.45
2023-05-10T23:45:37.797Z,11.48
2023-05-10T23:47:42.996Z,9.90
2023-05-10T23:49:47.997Z,11.77
2023-05-10T23:51:52.911Z,11.38
2023-05-10T23:53:57.768Z,12.02
2023-05-10T23:56:02.744Z,10.48
2023-05-10T23:58:10.143Z,10.10
